Shell Bell — WDJ3450 — position and weather

sailwx.info

Track history (hours):
 
Tides and Currents Weather Stations Pressure Air Temp Water Temp Dewpoint Dewpoint Depression Visibility Wind Speed Wind Dir Waves Ship Positions

Shell Bell

Owner: Venardi Mr, Mark L, Pleasant Hill, CA. More information available from US FCC via Universal Licensing System and Coast Guard Vessel Documentation Center.

Last reported at 2018-Apr-22 01:34 UTC. Time now 2018-Apr-26 03:25 UTC.
Position N 37°46' W 122°17'.

Length 12 m.

Type: Sailing vessel. MMSI: 367768090.

Date/timePositionNaut miles runAvg speedWind from/ knotsBaromVisibWave heightAir tempDewpointWater temp
2018-Apr-22 01:34N 37°46' W 122°17'0 0.3
2018-Apr-22 01:25N 37°46' W 122°17'0 1.2
2018-Apr-22 01:00N 37°46' W 122°18'2 4.1
2018-Apr-22 00:30N 37°46' W 122°20'1 1.6
2018-Apr-22 00:00N 37°45' W 122°20'2 3.3
2018-Apr-21 23:30N 37°47' W 122°22'1 2.4
2018-Apr-21 22:57N 37°46' W 122°20'2 3.3
2018-Apr-21 22:29N 37°46' W 122°18'1 1.7
2018-Apr-21 21:59N 37°46' W 122°17'  
2018-Apr-15 17:14N 37°46' W 122°17'0 0.2
2018-Apr-15 16:58N 37°46' W 122°17'2 3.7
2018-Apr-15 16:31N 37°45' W 122°19'3 6.5
2018-Apr-15 16:00N 37°48' W 122°22'4 7.3
2018-Apr-15 15:30N 37°50' W 122°25'3 5.5
2018-Apr-15 15:00N 37°52' W 122°28'0 0.0
2018-Apr-15 13:52N 37°52' W 122°28'0 0.0
2018-Apr-15 13:28N 37°52' W 122°28'0 0.0
2018-Apr-15 12:55N 37°52' W 122°28'0 0.0
2018-Apr-15 12:28N 37°52' W 122°28'0 0.0
2018-Apr-15 12:00N 37°52' W 122°28'0 0.0
2018-Apr-15 11:19N 37°52' W 122°28'0 0.0
2018-Apr-15 10:58N 37°52' W 122°28'0 0.0
2018-Apr-15 10:27N 37°52' W 122°28'0 0.0
2018-Apr-15 09:57N 37°52' W 122°28'0 0.0
2018-Apr-15 09:15N 37°52' W 122°28'0 0.0
2018-Apr-15 08:51N 37°52' W 122°28'0 0.0
2018-Apr-15 08:24N 37°52' W 122°28'0 0.0
2018-Apr-15 07:57N 37°52' W 122°28'1 1.8
2018-Apr-15 07:30N 37°51' W 122°28'4 7.0
2018-Apr-15 07:00N 37°48' W 122°31'4 7.1
2018-Apr-15 06:30N 37°47' W 122°35'4 7.1
2018-Apr-15 06:00N 37°47' W 122°40'2 4.7
2018-Apr-15 05:29N 37°48' W 122°42'3 5.3
2018-Apr-15 04:57N 37°51' W 122°44'3 6.5
2018-Apr-15 04:28N 37°52' W 122°48'3 5.9
2018-Apr-15 03:59N 37°53' W 122°51'3 5.7
2018-Apr-15 03:29N 37°54' W 122°54'2 4.9
2018-Apr-15 03:00N 37°55' W 122°57'3 5.7
2018-Apr-15 02:30N 37°58' W 122°57'2 3.7
2018-Apr-15 01:55N 37°60' W 122°58'0 0.0
2018-Apr-15 01:25N 37°60' W 122°58'0 0.0
2018-Apr-15 00:55N 37°60' W 122°58'0 0.0
2018-Apr-15 00:25N 37°60' W 122°58'0 0.0
2018-Apr-14 23:55N 37°60' W 122°58'0 0.0
2018-Apr-14 23:19N 37°60' W 122°58'0 0.0
2018-Apr-14 22:55N 37°60' W 122°58'0 0.0
2018-Apr-14 22:19N 37°60' W 122°58'0 0.0
2018-Apr-14 21:55N 37°60' W 122°58'0 0.0
2018-Apr-14 21:30N 37°60' W 122°58'2 3.1
2018-Apr-14 21:00N 38°00' W 122°56'2 3.9
2018-Apr-14 20:30N 37°59' W 122°54'5 4.0
2018-Apr-14 19:13N 37°55' W 122°50'1 5.9
2018-Apr-14 19:00N 37°54' W 122°50'3 2.6
2018-Apr-14 17:42N 37°52' W 122°47'1 4.1
2018-Apr-14 17:29N 37°52' W 122°46'3 5.1
2018-Apr-14 16:59N 37°52' W 122°43'3 6.9
2018-Apr-14 16:29N 37°49' W 122°40'3 7.1
2018-Apr-14 16:00N 37°46' W 122°38'3 6.7
2018-Apr-14 15:30N 37°48' W 122°34'3 6.9
2018-Apr-14 15:00N 37°49' W 122°30'3 5.0
2018-Apr-14 14:30N 37°51' W 122°28'0 0.5
2018-Apr-14 14:00N 37°51' W 122°28'0 0.8
2018-Apr-14 13:30N 37°52' W 122°28'0 0.0
2018-Apr-14 13:00N 37°52' W 122°28'0 0.0
2018-Apr-14 12:30N 37°52' W 122°28'0 0.0
2018-Apr-14 12:01N 37°52' W 122°28'0 0.0
2018-Apr-14 11:27N 37°52' W 122°28'0 0.0
2018-Apr-14 11:00N 37°52' W 122°28'0 0.0
2018-Apr-14 10:31N 37°52' W 122°28'0 0.0
2018-Apr-14 09:57N 37°52' W 122°28'0 0.0
2018-Apr-14 09:27N 37°52' W 122°28'0 0.0
2018-Apr-14 08:57N 37°52' W 122°28'0 0.0
2018-Apr-14 08:27N 37°52' W 122°28'0 0.0
2018-Apr-14 07:54N 37°52' W 122°28'0 0.0
2018-Apr-14 07:27N 37°52' W 122°28'0 0.0
2018-Apr-14 06:57N 37°52' W 122°28'0 0.0
2018-Apr-14 06:27N 37°52' W 122°28'0 0.0
2018-Apr-14 05:58N 37°52' W 122°28'0 0.0
2018-Apr-14 05:22N 37°52' W 122°28'0 0.0
2018-Apr-14 05:00N 37°52' W 122°28'0 0.0
2018-Apr-14 04:27N 37°52' W 122°28'0 0.0
2018-Apr-14 03:58N 37°52' W 122°28'0 0.0
2018-Apr-14 03:30N 37°52' W 122°28'2 3.2
2018-Apr-14 03:00N 37°51' W 122°26'3 5.2
2018-Apr-14 02:30N 37°49' W 122°24'3 5.2
2018-Apr-14 02:00N 37°47' W 122°21'3 5.2
2018-Apr-14 01:30N 37°46' W 122°19'2 2.9
2018-Apr-14 00:59N 37°46' W 122°17'0 0.0
2018-Apr-14 00:29N 37°46' W 122°17'0 0.0
2018-Apr-13 23:59N 37°46' W 122°17'0 0.0
2018-Apr-13 23:29N 37°46' W 122°17'0 0.0
2018-Apr-13 22:59N 37°46' W 122°17'  
Track history (hours):
 
Tides and Currents Weather Stations Pressure Air Temp Water Temp Dewpoint Dewpoint Depression Visibility Wind Speed Wind Dir Waves Ship Positions

Shell Bell

Owner: Venardi Mr, Mark L, Pleasant Hill, CA. More information available from US FCC via Universal Licensing System and Coast Guard Vessel Documentation Center.

Last reported at 2018-Apr-22 01:34 UTC. Time now 2018-Apr-26 03:25 UTC.
Position N 37°46' W 122°17'.

Length 12 m.

Type: Sailing vessel. MMSI: 367768090.

Date/timePositionNaut miles runAvg speedWind from/ knotsBaromVisibWave heightAir tempDewpointWater temp
2018-Apr-22 01:34N 37°46' W 122°17'0 0.3
2018-Apr-22 01:25N 37°46' W 122°17'0 1.2
2018-Apr-22 01:00N 37°46' W 122°18'2 4.1
2018-Apr-22 00:30N 37°46' W 122°20'1 1.6
2018-Apr-22 00:00N 37°45' W 122°20'2 3.3
2018-Apr-21 23:30N 37°47' W 122°22'1 2.4
2018-Apr-21 22:57N 37°46' W 122°20'2 3.3
2018-Apr-21 22:29N 37°46' W 122°18'1 1.7
2018-Apr-21 21:59N 37°46' W 122°17'  
2018-Apr-15 17:14N 37°46' W 122°17'0 0.2
2018-Apr-15 16:58N 37°46' W 122°17'2 3.7
2018-Apr-15 16:31N 37°45' W 122°19'3 6.5
2018-Apr-15 16:00N 37°48' W 122°22'4 7.3
2018-Apr-15 15:30N 37°50' W 122°25'3 5.5
2018-Apr-15 15:00N 37°52' W 122°28'0 0.0
2018-Apr-15 13:52N 37°52' W 122°28'0 0.0
2018-Apr-15 13:28N 37°52' W 122°28'0 0.0
2018-Apr-15 12:55N 37°52' W 122°28'0 0.0
2018-Apr-15 12:28N 37°52' W 122°28'0 0.0
2018-Apr-15 12:00N 37°52' W 122°28'0 0.0
2018-Apr-15 11:19N 37°52' W 122°28'0 0.0
2018-Apr-15 10:58N 37°52' W 122°28'0 0.0
2018-Apr-15 10:27N 37°52' W 122°28'0 0.0
2018-Apr-15 09:57N 37°52' W 122°28'0 0.0
2018-Apr-15 09:15N 37°52' W 122°28'0 0.0
2018-Apr-15 08:51N 37°52' W 122°28'0 0.0
2018-Apr-15 08:24N 37°52' W 122°28'0 0.0
2018-Apr-15 07:57N 37°52' W 122°28'1 1.8
2018-Apr-15 07:30N 37°51' W 122°28'4 7.0
2018-Apr-15 07:00N 37°48' W 122°31'4 7.1
2018-Apr-15 06:30N 37°47' W 122°35'4 7.1
2018-Apr-15 06:00N 37°47' W 122°40'2 4.7
2018-Apr-15 05:29N 37°48' W 122°42'3 5.3
2018-Apr-15 04:57N 37°51' W 122°44'3 6.5
2018-Apr-15 04:28N 37°52' W 122°48'3 5.9
2018-Apr-15 03:59N 37°53' W 122°51'3 5.7
2018-Apr-15 03:29N 37°54' W 122°54'2 4.9
2018-Apr-15 03:00N 37°55' W 122°57'3 5.7
2018-Apr-15 02:30N 37°58' W 122°57'2 3.7
2018-Apr-15 01:55N 37°60' W 122°58'0 0.0
2018-Apr-15 01:25N 37°60' W 122°58'0 0.0
2018-Apr-15 00:55N 37°60' W 122°58'0 0.0
2018-Apr-15 00:25N 37°60' W 122°58'0 0.0
2018-Apr-14 23:55N 37°60' W 122°58'0 0.0
2018-Apr-14 23:19N 37°60' W 122°58'0 0.0
2018-Apr-14 22:55N 37°60' W 122°58'0 0.0
2018-Apr-14 22:19N 37°60' W 122°58'0 0.0
2018-Apr-14 21:55N 37°60' W 122°58'0 0.0
2018-Apr-14 21:30N 37°60' W 122°58'2 3.1
2018-Apr-14 21:00N 38°00' W 122°56'2 3.9
2018-Apr-14 20:30N 37°59' W 122°54'5 4.0
2018-Apr-14 19:13N 37°55' W 122°50'1 5.9
2018-Apr-14 19:00N 37°54' W 122°50'3 2.6
2018-Apr-14 17:42N 37°52' W 122°47'1 4.1
2018-Apr-14 17:29N 37°52' W 122°46'3 5.1
2018-Apr-14 16:59N 37°52' W 122°43'3 6.9
2018-Apr-14 16:29N 37°49' W 122°40'3 7.1
2018-Apr-14 16:00N 37°46' W 122°38'3 6.7
2018-Apr-14 15:30N 37°48' W 122°34'3 6.9
2018-Apr-14 15:00N 37°49' W 122°30'3 5.0
2018-Apr-14 14:30N 37°51' W 122°28'0 0.5
2018-Apr-14 14:00N 37°51' W 122°28'0 0.8
2018-Apr-14 13:30N 37°52' W 122°28'0 0.0
2018-Apr-14 13:00N 37°52' W 122°28'0 0.0
2018-Apr-14 12:30N 37°52' W 122°28'0 0.0
2018-Apr-14 12:01N 37°52' W 122°28'0 0.0
2018-Apr-14 11:27N 37°52' W 122°28'0 0.0
2018-Apr-14 11:00N 37°52' W 122°28'0 0.0
2018-Apr-14 10:31N 37°52' W 122°28'0 0.0
2018-Apr-14 09:57N 37°52' W 122°28'0 0.0
2018-Apr-14 09:27N 37°52' W 122°28'0 0.0
2018-Apr-14 08:57N 37°52' W 122°28'0 0.0
2018-Apr-14 08:27N 37°52' W 122°28'0 0.0
2018-Apr-14 07:54N 37°52' W 122°28'0 0.0
2018-Apr-14 07:27N 37°52' W 122°28'0 0.0
2018-Apr-14 06:57N 37°52' W 122°28'0 0.0
2018-Apr-14 06:27N 37°52' W 122°28'0 0.0
2018-Apr-14 05:58N 37°52' W 122°28'0 0.0
2018-Apr-14 05:22N 37°52' W 122°28'0 0.0
2018-Apr-14 05:00N 37°52' W 122°28'0 0.0
2018-Apr-14 04:27N 37°52' W 122°28'0 0.0
2018-Apr-14 03:58N 37°52' W 122°28'0 0.0
2018-Apr-14 03:30N 37°52' W 122°28'2 3.2
2018-Apr-14 03:00N 37°51' W 122°26'3 5.2
2018-Apr-14 02:30N 37°49' W 122°24'3 5.2
2018-Apr-14 02:00N 37°47' W 122°21'3 5.2
2018-Apr-14 01:30N 37°46' W 122°19'2 2.9
2018-Apr-14 00:59N 37°46' W 122°17'0 0.0
2018-Apr-14 00:29N 37°46' W 122°17'0 0.0
2018-Apr-13 23:59N 37°46' W 122°17'0 0.0
2018-Apr-13 23:29N 37°46' W 122°17'0 0.0
2018-Apr-13 22:59N 37°46' W 122°17'  

Dump ship's entire track history